Estación Meteorológica Peña el Pijo (Robertgarden) [ 02/03/23 02:59:20 CET ]

Fecha Hora Presion(HPa) Temp (°C) Humedad % Rocio (°C) Viento ( m/s) Direccion Lluvia 1Hora(mm) Lluvia 24H(mm) LLuvia Total(mm)
2012-Aug-06 01:01:12 1009.900 19.3 44 6.7         176.12
2012-Aug-06 02:01:12 1010.200 18.9 51 8.6         176.12
2012-Aug-06 03:01:46 1010.200 18.1 56 9.1         176.12
2012-Aug-06 04:01:43 1010.500 16.6 62 9.3         176.12
2012-Aug-06 05:01:42 1010.800 14.9 67 8.8         176.12
2012-Aug-06 06:01:42 1010.800 14.9 71 9.7         176.12
2012-Aug-06 07:01:14 1011.100 14.9 70 9.5         176.12
2012-Aug-06 08:01:11 1011.600 14.1 74 9.5         176.12
2012-Aug-06 09:01:16 1012.200 19.6 61 11.9         176.12
2012-Aug-06 10:01:17 1012.600 22.6 43 9.3         176.12
2012-Aug-06 11:01:18 1012.900 24.4 34 7.4         176.12
2012-Aug-06 12:01:11 1012.900 26.3 29 6.8         176.12
2012-Aug-06 13:01:12 1012.800 28.6 26 7.0         176.12
2012-Aug-06 14:01:21 1012.800 30.9 24 7.8         176.12
2012-Aug-06 15:01:16 1012.500 30.9 16 1.6 1.6 E     176.12
2012-Aug-06 16:01:15 1012.200 33.5 15 2.6         176.12
2012-Aug-06 17:01:18 1012.100 34.0 12 0.1         176.12
2012-Aug-06 18:01:15 1011.900 33.7 11 -1.1         176.12
2012-Aug-06 19:01:16 1012.000 32.3 13 -0.2         176.12
2012-Aug-06 20:01:16 1013.200 26.6 32 8.5 3.0 E     176.12
2012-Aug-06 21:01:16 1014.100 24.1 39 9.3 4.6 NE     176.12
2012-Aug-06 22:01:15 1014.200 22.4 43 9.2         176.12
2012-Aug-06 23:01:17 1014.700 21.1 45 8.6         176.12

Temperatura Máxima:34°    Temperatura Mínima:14°
Presión Máxima:1014.700 Hpa    Presión Mínima:1009.900 Hpa


Volver